createdAt,value
2019-03-12T00:01:02.015Z,52.20
2019-03-12T00:03:31.779Z,52.00
2019-03-12T00:06:01.509Z,51.40
2019-03-12T00:08:31.481Z,51.80
2019-03-12T00:11:01.330Z,51.70
2019-03-12T00:13:31.104Z,51.30
2019-03-12T00:16:00.885Z,51.50
2019-03-12T00:18:30.644Z,51.10
2019-03-12T00:21:00.337Z,51.50
2019-03-12T00:23:30.030Z,51.30
2019-03-12T00:25:59.723Z,51.10
2019-03-12T00:28:29.485Z,51.00
2019-03-12T00:30:59.259Z,51.20
2019-03-12T00:33:28.947Z,51.30
2019-03-12T00:35:58.638Z,51.40
2019-03-12T00:38:28.344Z,51.30
2019-03-12T00:40:58.111Z,51.20
2019-03-12T00:43:27.801Z,51.50
2019-03-12T00:45:57.504Z,51.70
2019-03-12T00:48:27.191Z,51.50
2019-03-12T00:50:56.976Z,51.50
2019-03-12T00:53:26.683Z,50.90
2019-03-12T00:55:56.362Z,51.70
2019-03-12T00:58:26.075Z,51.60
2019-03-12T01:00:55.794Z,51.50
2019-03-12T01:03:25.567Z,52.00
2019-03-12T01:05:55.398Z,52.40
2019-03-12T01:08:25.215Z,52.70
2019-03-12T01:10:55.074Z,52.70
2019-03-12T01:13:24.771Z,52.60
2019-03-12T01:15:54.561Z,52.80
2019-03-12T01:18:24.263Z,52.80
2019-03-12T01:20:54.030Z,52.80
2019-03-12T01:23:23.740Z,52.60
2019-03-12T01:25:53.513Z,52.90
2019-03-12T01:28:23.286Z,52.40
2019-03-12T01:30:52.971Z,51.90
2019-03-12T01:33:22.683Z,51.70
2019-03-12T01:35:52.463Z,51.60
2019-03-12T01:38:22.231Z,51.60
2019-03-12T01:40:52.114Z,51.50
2019-03-12T01:43:21.985Z,51.50
2019-03-12T01:45:51.743Z,51.40
2019-03-12T01:48:21.555Z,51.50
2019-03-12T01:50:51.346Z,51.50
2019-03-12T01:53:21.131Z,51.30
2019-03-12T01:55:50.970Z,51.30
2019-03-12T01:58:20.752Z,51.20
2019-03-12T02:00:50.531Z,51.30
2019-03-12T02:03:20.219Z,51.40
2019-03-12T02:05:49.991Z,51.20
2019-03-12T02:08:19.772Z,51.20
2019-03-12T02:10:49.602Z,51.30
2019-03-12T02:13:19.299Z,51.10
2019-03-12T02:15:49.071Z,51.10
2019-03-12T02:18:18.783Z,51.40
2019-03-12T02:20:48.551Z,51.20
2019-03-12T02:23:18.388Z,51.50
2019-03-12T02:25:48.102Z,51.40
2019-03-12T02:28:17.879Z,51.30
2019-03-12T02:30:47.650Z,51.20
2019-03-12T02:33:17.496Z,50.90
2019-03-12T02:35:47.284Z,51.60
2019-03-12T02:38:17.067Z,51.70
2019-03-12T02:40:46.901Z,51.60
2019-03-12T02:43:16.598Z,51.50
2019-03-12T02:45:46.354Z,51.30
2019-03-12T02:48:16.126Z,51.20
2019-03-12T02:50:45.826Z,51.20
2019-03-12T02:53:15.614Z,51.20
2019-03-12T02:55:45.372Z,51.20
2019-03-12T02:58:15.063Z,51.10
2019-03-12T03:00:44.839Z,51.30
2019-03-12T03:03:14.616Z,51.40
2019-03-12T03:06:15.515Z,51.30
2019-03-12T03:08:45.391Z,51.30
2019-03-12T03:11:15.115Z,51.50
2019-03-12T03:13:44.880Z,51.20
2019-03-12T03:16:15.684Z,51.50
2019-03-12T03:18:45.485Z,51.20
2019-03-12T03:21:15.301Z,51.50
2019-03-12T03:23:44.999Z,51.30
2019-03-12T03:26:15.734Z,51.60
2019-03-12T03:28:46.390Z,51.40
2019-03-12T03:31:16.080Z,51.40
2019-03-12T03:33:45.797Z,51.50
2019-03-12T03:36:15.623Z,51.40
2019-03-12T03:38:45.343Z,51.50
2019-03-12T03:41:15.139Z,51.50
2019-03-12T03:43:44.972Z,51.60
2019-03-12T03:46:14.731Z,51.40
2019-03-12T03:48:44.505Z,51.30
2019-03-12T03:51:14.215Z,51.30
2019-03-12T03:53:43.985Z,51.60
2019-03-12T03:56:13.834Z,51.70
2019-03-12T03:58:43.560Z,51.80
2019-03-12T04:01:13.357Z,51.90
2019-03-12T04:03:43.139Z,51.80
2019-03-12T04:06:12.983Z,51.70
2019-03-12T04:08:42.695Z,51.50
2019-03-12T04:11:12.448Z,51.50
2019-03-12T04:13:42.153Z,51.60
2019-03-12T04:16:11.846Z,51.50
2019-03-12T04:18:41.569Z,51.60
2019-03-12T04:21:11.313Z,51.50
2019-03-12T04:23:41.020Z,51.60
2019-03-12T04:26:10.793Z,51.40
2019-03-12T04:28:40.583Z,51.70
2019-03-12T04:31:10.344Z,51.70
2019-03-12T04:34:18.613Z,51.50
2019-03-12T04:36:49.779Z,51.10
2019-03-12T04:39:19.656Z,51.20
2019-03-12T04:41:49.479Z,51.10
2019-03-12T04:44:19.364Z,51.10
2019-03-12T04:46:49.124Z,51.20
2019-03-12T04:49:18.933Z,51.50
2019-03-12T04:51:48.787Z,51.30
2019-03-12T04:54:18.635Z,52.70
2019-03-12T04:56:48.674Z,53.20
2019-03-12T04:59:18.475Z,54.20
2019-03-12T05:01:48.310Z,54.20
2019-03-12T05:04:18.087Z,54.80
2019-03-12T05:06:47.792Z,54.90
2019-03-12T05:09:17.570Z,53.30
2019-03-12T05:11:47.351Z,53.30
2019-03-12T05:14:30.187Z,52.50
2019-03-12T05:17:05.859Z,52.00
2019-03-12T05:19:35.613Z,51.90
2019-03-12T05:22:05.453Z,51.50
2019-03-12T05:24:35.224Z,51.00
2019-03-12T05:27:05.058Z,50.90
2019-03-12T05:29:34.826Z,50.40
2019-03-12T05:32:04.655Z,50.70
2019-03-12T05:34:34.368Z,51.20
2019-03-12T05:37:04.134Z,50.90
2019-03-12T05:39:33.847Z,50.80
2019-03-12T05:42:03.532Z,49.20
2019-03-12T05:44:33.227Z,50.70
2019-03-12T05:47:03.086Z,50.30
2019-03-12T05:49:32.895Z,50.30
2019-03-12T05:52:02.603Z,50.10
2019-03-12T05:54:33.271Z,50.00
2019-03-12T05:57:03.114Z,50.00
2019-03-12T05:59:32.891Z,49.50
2019-03-12T06:02:02.655Z,50.10
2019-03-12T06:04:32.351Z,50.00
2019-03-12T06:07:02.195Z,49.10
2019-03-12T06:09:31.911Z,49.80
2019-03-12T06:12:01.618Z,49.90
2019-03-12T06:14:31.339Z,49.70
2019-03-12T06:17:01.095Z,49.60
2019-03-12T06:19:30.783Z,49.50
2019-03-12T06:22:00.478Z,49.20
2019-03-12T06:24:30.245Z,49.80
2019-03-12T06:27:00.006Z,49.70
2019-03-12T06:29:29.727Z,49.50
2019-03-12T06:32:27.715Z,49.10
2019-03-12T06:35:07.990Z,48.80
2019-03-12T06:37:42.756Z,48.70
2019-03-12T06:40:31.612Z,48.70
2019-03-12T06:43:29.522Z,49.20
2019-03-12T06:46:07.111Z,49.10
2019-03-12T06:48:42.054Z,49.70
2019-03-12T06:51:42.654Z,50.00
2019-03-12T06:54:29.951Z,49.50
2019-03-12T06:57:15.300Z,50.00
2019-03-12T07:00:09.979Z,49.60
2019-03-12T07:03:01.612Z,49.10
2019-03-12T07:05:44.103Z,50.30
2019-03-12T07:08:45.123Z,49.00
2019-03-12T07:11:36.766Z,49.10
2019-03-12T07:14:25.707Z,49.00
2019-03-12T07:17:12.115Z,48.30
2019-03-12T07:20:03.991Z,49.40
2019-03-12T07:22:43.003Z,48.20
2019-03-12T07:25:28.990Z,48.70
2019-03-12T07:28:20.653Z,49.30
2019-03-12T07:31:08.134Z,48.30
2019-03-12T07:33:49.233Z,49.10
2019-03-12T07:36:56.284Z,48.70
2019-03-12T07:39:46.036Z,49.10
2019-03-12T07:42:33.535Z,48.80
2019-03-12T07:45:25.066Z,49.10
2019-03-12T07:48:16.791Z,49.00
2019-03-12T07:51:23.549Z,49.50
2019-03-12T07:54:11.241Z,49.60
2019-03-12T07:57:00.048Z,49.60
2019-03-12T07:59:41.423Z,49.30
2019-03-12T08:02:36.571Z,48.40
2019-03-12T08:05:24.292Z,49.30
2019-03-12T08:08:11.903Z,48.90
2019-03-12T08:10:58.926Z,49.50
2019-03-12T08:13:56.757Z,50.80
2019-03-12T08:16:36.258Z,51.00
2019-03-12T08:19:23.832Z,50.80
2019-03-12T08:22:03.602Z,51.10
2019-03-12T08:24:43.578Z,50.30
2019-03-12T08:27:38.285Z,50.10
2019-03-12T08:30:41.106Z,50.70
2019-03-12T08:33:26.735Z,51.00
2019-03-12T08:36:15.361Z,50.60
2019-03-12T08:39:01.550Z,49.60
2019-03-12T08:42:03.868Z,50.50
2019-03-12T08:45:00.468Z,49.70
2019-03-12T08:47:39.134Z,49.10
2019-03-12T08:50:37.063Z,48.50
2019-03-12T08:53:26.015Z,49.30
2019-03-12T08:56:06.331Z,48.90
2019-03-12T08:58:59.068Z,48.70
2019-03-12T09:01:48.016Z,49.50
2019-03-12T09:04:54.792Z,48.30
2019-03-12T09:07:33.332Z,49.30
2019-03-12T09:10:22.179Z,49.80
2019-03-12T09:13:16.962Z,49.30
2019-03-12T09:16:11.973Z,49.00
2019-03-12T09:19:01.330Z,49.70
2019-03-12T09:21:42.687Z,49.60
2019-03-12T09:24:35.183Z,49.60
2019-03-12T09:27:15.032Z,49.20
2019-03-12T09:30:06.917Z,49.70
2019-03-12T09:32:59.062Z,48.60
2019-03-12T09:35:46.575Z,48.80
2019-03-12T09:38:20.721Z,49.30
2019-03-12T09:41:08.051Z,49.10
2019-03-12T09:43:49.386Z,49.50
2019-03-12T09:46:38.179Z,49.00
2019-03-12T09:49:22.747Z,48.60
2019-03-12T09:52:17.342Z,47.50
2019-03-12T09:55:08.491Z,48.30
2019-03-12T09:57:50.575Z,47.80
2019-03-12T10:00:35.192Z,47.80
2019-03-12T10:03:22.615Z,48.60
2019-03-12T10:06:09.835Z,48.00
2019-03-12T10:09:07.877Z,47.60
2019-03-12T10:12:00.287Z,47.70
2019-03-12T10:14:37.380Z,49.20
2019-03-12T10:17:44.492Z,48.60
2019-03-12T10:20:27.942Z,48.10
2019-03-12T10:23:09.302Z,48.70
2019-03-12T10:25:56.573Z,48.60
2019-03-12T10:28:51.219Z,47.40
2019-03-12T10:31:44.834Z,47.90
2019-03-12T10:34:30.654Z,47.60
2019-03-12T10:37:28.542Z,48.10
2019-03-12T10:40:30.823Z,47.50
2019-03-12T10:43:25.078Z,47.10
2019-03-12T10:46:25.864Z,47.30
2019-03-12T10:48:55.634Z,47.60
2019-03-12T10:51:25.618Z,47.60
2019-03-12T10:53:55.335Z,47.50
2019-03-12T10:56:25.047Z,47.10
2019-03-12T10:58:54.752Z,46.50
2019-03-12T11:01:24.518Z,46.90
2019-03-12T11:03:54.203Z,47.30
2019-03-12T11:06:24.264Z,46.20
2019-03-12T11:08:54.030Z,46.40
2019-03-12T11:11:23.715Z,45.60
2019-03-12T11:13:53.428Z,46.60
2019-03-12T11:16:24.161Z,45.00
2019-03-12T11:18:53.936Z,46.60
2019-03-12T11:21:24.745Z,45.70
2019-03-12T11:23:54.563Z,47.00
2019-03-12T11:26:24.330Z,45.60
2019-03-12T11:28:54.175Z,46.80
2019-03-12T11:31:23.943Z,48.30
2019-03-12T11:33:53.711Z,48.00
2019-03-12T11:36:23.493Z,48.30
2019-03-12T11:38:53.239Z,48.00
2019-03-12T11:41:43.835Z,46.50
2019-03-12T11:44:13.650Z,44.80
2019-03-12T11:46:45.660Z,44.90
2019-03-12T11:49:14.996Z,46.50
2019-03-12T11:51:45.746Z,44.80
2019-03-12T11:54:15.612Z,44.70
2019-03-12T11:56:45.319Z,45.10
2019-03-12T11:59:15.009Z,43.70
2019-03-12T12:01:44.763Z,44.70
2019-03-12T12:04:14.547Z,45.00
2019-03-12T12:06:44.392Z,43.80
2019-03-12T12:09:14.254Z,44.00
2019-03-12T12:11:44.251Z,44.80
2019-03-12T12:14:14.142Z,43.10
2019-03-12T12:16:43.968Z,44.10
2019-03-12T12:19:13.657Z,44.70
2019-03-12T12:21:43.444Z,43.00
2019-03-12T12:24:13.294Z,42.70
2019-03-12T12:26:43.075Z,44.20
2019-03-12T12:29:13.033Z,42.40
2019-03-12T12:31:42.835Z,43.60
2019-03-12T12:34:12.534Z,43.50
2019-03-12T12:36:42.225Z,41.40
2019-03-12T12:39:12.097Z,42.00
2019-03-12T12:41:42.029Z,43.20
2019-03-12T12:44:11.723Z,43.20
2019-03-12T12:46:41.571Z,42.30
2019-03-12T12:49:11.274Z,41.80
2019-03-12T12:51:41.026Z,42.40
2019-03-12T12:54:10.839Z,42.60
2019-03-12T12:56:40.670Z,43.00
2019-03-12T12:59:10.531Z,40.80
2019-03-12T13:01:40.373Z,41.50
2019-03-12T13:04:10.296Z,43.70
2019-03-12T13:06:39.984Z,43.10
2019-03-12T13:09:09.772Z,42.60
2019-03-12T13:11:41.306Z,42.60
2019-03-12T13:14:12.071Z,42.40
2019-03-12T13:16:41.787Z,43.40
2019-03-12T13:19:11.564Z,42.60
2019-03-12T13:21:41.651Z,41.50
2019-03-12T13:24:11.435Z,42.50
2019-03-12T13:26:41.295Z,43.10
2019-03-12T13:29:11.059Z,42.70
2019-03-12T13:31:40.918Z,41.10
2019-03-12T13:34:10.691Z,41.50
2019-03-12T13:36:40.458Z,41.60
2019-03-12T13:39:10.534Z,42.70
2019-03-12T13:41:41.873Z,41.00
2019-03-12T13:44:11.744Z,41.00
2019-03-12T13:46:41.505Z,42.60
2019-03-12T13:49:11.259Z,41.80
2019-03-12T13:51:41.868Z,41.90
2019-03-12T13:54:11.795Z,41.60
2019-03-12T13:56:41.590Z,43.30
2019-03-12T13:59:11.359Z,42.00
2019-03-12T14:01:41.242Z,41.40
2019-03-12T14:04:11.192Z,41.60
2019-03-12T14:06:41.047Z,41.80
2019-03-12T14:09:11.007Z,41.20
2019-03-12T14:11:42.462Z,40.00
2019-03-12T14:14:12.392Z,42.20
2019-03-12T14:16:42.792Z,40.10
2019-03-12T14:19:13.582Z,40.70
2019-03-12T14:21:44.251Z,41.60
2019-03-12T14:24:14.091Z,41.20
2019-03-12T14:26:43.854Z,42.20
2019-03-12T14:29:13.722Z,41.70
2019-03-12T14:31:43.556Z,42.30
2019-03-12T14:34:13.502Z,42.40
2019-03-12T14:36:43.202Z,42.20
2019-03-12T14:39:13.163Z,40.20
2019-03-12T14:41:43.112Z,40.50
2019-03-12T14:44:13.040Z,42.20
2019-03-12T14:46:42.876Z,42.30
2019-03-12T14:49:12.783Z,41.70
2019-03-12T14:52:13.051Z,43.30
2019-03-12T14:54:43.868Z,42.00
2019-03-12T14:57:13.762Z,41.30
2019-03-12T14:59:43.481Z,41.50
2019-03-12T15:02:13.260Z,43.30
2019-03-12T15:04:43.070Z,42.40
2019-03-12T15:07:12.767Z,41.10
2019-03-12T15:09:42.650Z,40.80
2019-03-12T15:12:13.479Z,40.80
2019-03-12T15:14:44.150Z,41.60
2019-03-12T15:17:13.931Z,42.20
2019-03-12T15:19:43.699Z,41.50
2019-03-12T15:22:13.502Z,42.60
2019-03-12T15:24:43.268Z,42.50
2019-03-12T15:27:13.031Z,42.30
2019-03-12T15:29:42.736Z,42.10
2019-03-12T15:32:12.575Z,40.70
2019-03-12T15:34:42.271Z,42.40
2019-03-12T15:37:12.031Z,40.60
2019-03-12T15:39:41.754Z,42.00
2019-03-12T15:42:11.547Z,41.80
2019-03-12T15:44:41.256Z,40.70
2019-03-12T15:47:11.110Z,42.00
2019-03-12T15:49:43.034Z,42.00
2019-03-12T15:52:12.219Z,41.00
2019-03-12T15:54:42.986Z,41.60
2019-03-12T15:57:12.747Z,40.60
2019-03-12T15:59:42.533Z,40.30
2019-03-12T16:02:12.331Z,39.50
2019-03-12T16:04:42.111Z,40.50
2019-03-12T16:07:11.970Z,41.90
2019-03-12T16:09:41.690Z,42.30
2019-03-12T16:12:13.069Z,43.40
2019-03-12T16:14:42.754Z,42.10
2019-03-12T16:17:12.523Z,42.70
2019-03-12T16:19:42.218Z,43.80
2019-03-12T16:22:11.959Z,42.10
2019-03-12T16:24:42.417Z,43.80
2019-03-12T16:27:12.257Z,44.30
2019-03-12T16:29:41.943Z,43.10
2019-03-12T16:32:11.690Z,42.50
2019-03-12T16:34:41.443Z,42.80
2019-03-12T16:37:11.968Z,43.00
2019-03-12T16:39:41.788Z,44.50
2019-03-12T16:42:11.686Z,42.30
2019-03-12T16:44:41.459Z,41.40
2019-03-12T16:47:11.374Z,42.00
2019-03-12T16:49:41.063Z,43.20
2019-03-12T16:52:10.927Z,41.50
2019-03-12T16:54:40.698Z,42.50
2019-03-12T16:57:10.479Z,43.60
2019-03-12T16:59:40.288Z,44.00
2019-03-12T17:02:10.215Z,43.40
2019-03-12T17:04:40.013Z,43.50
2019-03-12T17:07:09.791Z,43.20
2019-03-12T17:09:39.595Z,43.20
2019-03-12T17:12:10.391Z,44.10
2019-03-12T17:14:40.092Z,44.00
2019-03-12T17:17:09.990Z,42.30
2019-03-12T17:19:40.516Z,42.30
2019-03-12T17:22:10.451Z,42.40
2019-03-12T17:24:40.145Z,42.70
2019-03-12T17:27:10.890Z,42.30
2019-03-12T17:29:40.643Z,42.60
2019-03-12T17:32:11.623Z,43.70
2019-03-12T17:34:41.400Z,41.90
2019-03-12T17:37:11.194Z,41.30
2019-03-12T17:39:40.879Z,43.60
2019-03-12T17:42:11.751Z,43.20
2019-03-12T17:44:41.499Z,40.50
2019-03-12T17:47:11.271Z,41.70
2019-03-12T17:49:41.040Z,42.60
2019-03-12T17:52:10.936Z,41.70
2019-03-12T17:54:40.683Z,40.70
2019-03-12T17:57:10.536Z,39.50
2019-03-12T17:59:40.256Z,41.50
2019-03-12T18:02:10.159Z,41.10
2019-03-12T18:04:39.931Z,40.50
2019-03-12T18:07:09.710Z,40.90
2019-03-12T18:09:39.412Z,39.00
2019-03-12T18:12:09.311Z,40.70
2019-03-12T18:14:38.996Z,39.90
2019-03-12T18:17:08.872Z,40.10
2019-03-12T18:19:38.569Z,40.40
2019-03-12T18:22:08.311Z,40.10
2019-03-12T18:24:38.095Z,40.60
2019-03-12T18:27:07.790Z,39.50
2019-03-12T18:29:37.584Z,39.40
2019-03-12T18:32:07.412Z,41.00
2019-03-12T18:34:37.175Z,39.70
2019-03-12T18:37:06.874Z,40.80
2019-03-12T18:39:36.567Z,39.90
2019-03-12T18:42:06.419Z,41.10
2019-03-12T18:44:37.100Z,38.80
2019-03-12T18:47:06.844Z,40.80
2019-03-12T18:49:36.596Z,38.10
2019-03-12T18:52:06.488Z,40.00
2019-03-12T18:54:36.217Z,39.60
2019-03-12T18:57:06.091Z,39.20
2019-03-12T18:59:35.777Z,39.40
2019-03-12T19:02:05.655Z,38.80
2019-03-12T19:04:35.347Z,39.00
2019-03-12T19:07:05.196Z,39.50
2019-03-12T19:09:34.979Z,38.10
2019-03-12T19:12:04.896Z,40.30
2019-03-12T19:14:34.607Z,40.10
2019-03-12T19:17:04.674Z,40.50
2019-03-12T19:19:34.521Z,40.30
2019-03-12T19:22:04.365Z,39.10
2019-03-12T19:24:34.240Z,38.80
2019-03-12T19:27:04.980Z,39.20
2019-03-12T19:29:34.742Z,38.80
2019-03-12T19:32:12.006Z,37.70
2019-03-12T19:34:41.847Z,39.90
2019-03-12T19:37:11.749Z,40.20
2019-03-12T19:39:41.583Z,39.20
2019-03-12T19:42:11.459Z,39.90
2019-03-12T19:44:41.242Z,38.90
2019-03-12T19:47:11.063Z,39.80
2019-03-12T19:49:40.951Z,40.70
2019-03-12T19:52:10.812Z,40.70
2019-03-12T19:54:40.730Z,40.70
2019-03-12T19:57:10.571Z,40.20
2019-03-12T19:59:40.416Z,41.10
2019-03-12T20:02:16.171Z,41.30
2019-03-12T20:04:47.243Z,41.10
2019-03-12T20:07:14.033Z,41.80
2019-03-12T20:10:07.668Z,40.90
2019-03-12T20:13:29.451Z,42.30
2019-03-12T20:16:42.752Z,41.90
2019-03-12T20:19:56.856Z,42.00
2019-03-12T20:23:03.586Z,42.50
2019-03-12T20:26:08.759Z,41.30
2019-03-12T20:29:08.274Z,42.00
2019-03-12T20:32:14.835Z,41.90
2019-03-12T20:35:30.147Z,42.60
2019-03-12T20:38:41.255Z,43.30
2019-03-12T20:41:51.935Z,43.80
2019-03-12T20:45:10.670Z,45.20
2019-03-12T20:48:28.323Z,45.90
2019-03-12T20:51:31.624Z,46.20
2019-03-12T20:54:48.940Z,46.80
2019-03-12T20:58:12.916Z,46.80
2019-03-12T21:01:15.203Z,47.10
2019-03-12T21:04:29.262Z,47.40
2019-03-12T21:07:43.014Z,47.30
2019-03-12T21:11:07.748Z,47.40
2019-03-12T21:14:11.171Z,47.50
2019-03-12T21:17:37.491Z,47.00
2019-03-12T21:20:53.739Z,47.80
2019-03-12T21:23:28.723Z,47.80
2019-03-12T21:26:13.212Z,47.70
2019-03-12T21:29:29.361Z,47.00
2019-03-12T21:31:59.169Z,47.60
2019-03-12T21:34:28.907Z,47.50
2019-03-12T21:36:58.616Z,47.30
2019-03-12T21:39:28.372Z,47.30
2019-03-12T21:41:58.312Z,47.80
2019-03-12T21:44:28.191Z,48.70
2019-03-12T21:46:58.031Z,49.40
2019-03-12T21:49:27.795Z,50.50
2019-03-12T21:51:57.563Z,50.30
2019-03-12T21:54:27.387Z,49.80
2019-03-12T21:56:57.151Z,49.70
2019-03-12T21:59:27.012Z,49.70
2019-03-12T22:01:56.771Z,49.70
2019-03-12T22:04:26.558Z,49.80
2019-03-12T22:06:56.324Z,49.90
2019-03-12T22:09:26.032Z,49.80
2019-03-12T22:11:55.802Z,49.90
2019-03-12T22:14:25.510Z,50.20
2019-03-12T22:16:57.800Z,50.50
2019-03-12T22:19:27.504Z,50.00
2019-03-12T22:22:16.270Z,49.90
2019-03-12T22:24:45.979Z,50.40
2019-03-12T22:27:15.818Z,50.10
2019-03-12T22:29:45.563Z,50.60
2019-03-12T22:32:15.259Z,50.30
2019-03-12T22:34:44.983Z,50.50
2019-03-12T22:37:14.739Z,49.80
2019-03-12T22:39:44.467Z,50.40
2019-03-12T22:42:14.162Z,50.90
2019-03-12T22:44:43.940Z,50.80
2019-03-12T22:47:13.719Z,50.70
2019-03-12T22:49:43.444Z,50.60
2019-03-12T22:52:13.139Z,51.20
2019-03-12T22:54:42.836Z,50.70
2019-03-12T22:57:12.667Z,50.50
2019-03-12T23:00:00.118Z,49.90
2019-03-12T23:02:47.463Z,50.90
2019-03-12T23:05:34.718Z,50.10
2019-03-12T23:08:22.099Z,50.20
2019-03-12T23:10:52.864Z,50.30
2019-03-12T23:13:23.007Z,50.20
2019-03-12T23:15:54.331Z,50.80
2019-03-12T23:18:24.015Z,50.60
2019-03-12T23:20:54.079Z,49.90
2019-03-12T23:23:25.471Z,49.90
2019-03-12T23:25:55.275Z,49.50
2019-03-12T23:28:25.143Z,50.00
2019-03-12T23:30:54.992Z,49.70
2019-03-12T23:33:24.837Z,49.90
2019-03-12T23:35:55.663Z,50.70
2019-03-12T23:38:25.503Z,50.60
2019-03-12T23:40:55.351Z,50.10
2019-03-12T23:43:25.199Z,49.90
2019-03-12T23:45:55.043Z,49.70
2019-03-12T23:48:24.883Z,49.80
2019-03-12T23:50:54.737Z,49.80
2019-03-12T23:53:24.447Z,50.10
2019-03-12T23:55:54.807Z,50.10
2019-03-12T23:58:29.982Z,50.30
